Accueil
METAR-TAF:

METAR-TAF

Aéroports :

Brescia Ghedi, Italie

latitude: 45-25N, longitude: 010-17E, altitude: 102 m

Observation

Le bulletin a été fait il y a 1 heure et 9 minutes, à 02:55 UTC
Température 9°C
Humidité 100%
Pression 1019 hPa
Visibilité: 1600 m
Nuages épars à une hauteur de 700 ft
Nuages épars à une hauteur de 1500 ft
faible bruine, brume

METAR: LIPL 250255Z /////KT 1600 -DZ BR SCT007 SCT015 09/09 Q1019 RMK OVC VIS MIN 1600 WIND THR31 06003KT YLO

Heure: 05:04 (04:04 UTC)

Prévision

Le bulletin a été fait il y a 2 heures et 4 minutes, à 02:00 UTC
Prévision valable du 25 à 03 UTC au 25 à 12 UTC
Vent 5 kt de direction variable
Visibilité: 1500 m
Nuages fragmentés à une hauteur de 3000 ft
brume
Temporairement
du 25 à 03 UTC au 25 à 12 UTC
Visibilité: 0600 m
pluie, brouillard

TAF: LIPL 250200Z 2503/2512 VRB05KT 1500 BR SCR020 BKN030 TEMPO 2503/2512 0600 RA FG

Observations et prévisions météorologiques de plus de 4000 aéroports (messages METAR et TAF).

Les stations disponibles sont représentées par des disques jaunes et rouges sur la carte.

Passer la souris dessus pour voir le nom de la station.

Cliquer dessus pour voir les observations et prévisions météorologiques.

Pour changer de carte: cliquez sur les boutons verts avec une croix noire pour zoomer, sur le bouton vert avec un tiret pour effectuer un zoom arrière, ou sur les flèches vertes pour les cartes adjacentes.


METAR-TAF: